sensor_id;sensor_type;location;lat;lon;timestamp;P1;durP1;ratioP1;P2;durP2;ratioP2
76617;SDS011;65509;42.816;74.648;2023-04-10T00:01:41;20.80;;;5.22;;
76617;SDS011;65509;42.816;74.648;2023-04-10T00:04:07;13.95;;;4.50;;
76617;SDS011;65509;42.816;74.648;2023-04-10T00:06:32;17.67;;;3.95;;
76617;SDS011;65509;42.816;74.648;2023-04-10T00:08:58;17.10;;;4.55;;
76617;SDS011;65509;42.816;74.648;2023-04-10T00:11:25;15.85;;;3.92;;
76617;SDS011;65509;42.816;74.648;2023-04-10T00:13:51;20.67;;;4.45;;
76617;SDS011;65509;42.816;74.648;2023-04-10T00:16:17;11.32;;;3.60;;
76617;SDS011;65509;42.816;74.648;2023-04-10T00:18:42;22.00;;;5.38;;
76617;SDS011;65509;42.816;74.648;2023-04-10T00:21:07;17.05;;;4.57;;
76617;SDS011;65509;42.816;74.648;2023-04-10T00:23:33;20.17;;;3.92;;
76617;SDS011;65509;42.816;74.648;2023-04-10T00:26:01;16.77;;;3.25;;
76617;SDS011;65509;42.816;74.648;2023-04-10T00:28:27;15.20;;;3.72;;
76617;SDS011;65509;42.816;74.648;2023-04-10T00:30:53;18.17;;;3.55;;
76617;SDS011;65509;42.816;74.648;2023-04-10T00:33:18;14.82;;;3.97;;
76617;SDS011;65509;42.816;74.648;2023-04-10T00:35:44;26.33;;;4.57;;
76617;SDS011;65509;42.816;74.648;2023-04-10T00:38:09;17.40;;;3.53;;
76617;SDS011;65509;42.816;74.648;2023-04-10T00:40:35;15.50;;;3.47;;
76617;SDS011;65509;42.816;74.648;2023-04-10T00:43:00;21.85;;;4.43;;
76617;SDS011;65509;42.816;74.648;2023-04-10T00:45:25;18.92;;;5.07;;
76617;SDS011;65509;42.816;74.648;2023-04-10T00:47:51;24.50;;;6.63;;
76617;SDS011;65509;42.816;74.648;2023-04-10T00:50:18;19.77;;;5.40;;
76617;SDS011;65509;42.816;74.648;2023-04-10T00:52:43;18.02;;;5.00;;
76617;SDS011;65509;42.816;74.648;2023-04-10T00:55:09;18.88;;;4.60;;
76617;SDS011;65509;42.816;74.648;2023-04-10T00:57:35;13.40;;;3.95;;
76617;SDS011;65509;42.816;74.648;2023-04-10T01:00:00;25.00;;;5.55;;
76617;SDS011;65509;42.816;74.648;2023-04-10T01:02:26;15.50;;;3.83;;
76617;SDS011;65509;42.816;74.648;2023-04-10T01:04:52;19.65;;;4.80;;
76617;SDS011;65509;42.816;74.648;2023-04-10T01:10:17;17.08;;;4.05;;
76617;SDS011;65509;42.816;74.648;2023-04-10T01:12:59;27.35;;;6.47;;
76617;SDS011;65509;42.816;74.648;2023-04-10T01:15:29;22.60;;;5.97;;
76617;SDS011;65509;42.816;74.648;2023-04-10T01:20:25;16.05;;;4.78;;
76617;SDS011;65509;42.816;74.648;2023-04-10T01:27:51;25.15;;;5.50;;
76617;SDS011;65509;42.816;74.648;2023-04-10T01:30:20;22.15;;;4.93;;
76617;SDS011;65509;42.816;74.648;2023-04-10T01:32:47;31.02;;;4.97;;
76617;SDS011;65509;42.816;74.648;2023-04-10T01:35:13;18.45;;;4.38;;
76617;SDS011;65509;42.816;74.648;2023-04-10T01:37:40;23.85;;;7.28;;
76617;SDS011;65509;42.816;74.648;2023-04-10T01:40:08;32.22;;;9.10;;
76617;SDS011;65509;42.816;74.648;2023-04-10T01:42:37;25.30;;;7.25;;
76617;SDS011;65509;42.816;74.648;2023-04-10T01:45:05;18.85;;;4.90;;
76617;SDS011;65509;42.816;74.648;2023-04-10T01:47:31;16.45;;;4.32;;
76617;SDS011;65509;42.816;74.648;2023-04-10T01:49:58;20.30;;;5.03;;
76617;SDS011;65509;42.816;74.648;2023-04-10T01:52:25;17.42;;;4.30;;
76617;SDS011;65509;42.816;74.648;2023-04-10T01:54:52;19.35;;;5.03;;
76617;SDS011;65509;42.816;74.648;2023-04-10T01:57:18;13.68;;;4.05;;
76617;SDS011;65509;42.816;74.648;2023-04-10T01:59:43;22.50;;;4.78;;
76617;SDS011;65509;42.816;74.648;2023-04-10T02:02:09;17.88;;;4.28;;
76617;SDS011;65509;42.816;74.648;2023-04-10T02:04:36;16.70;;;3.58;;
76617;SDS011;65509;42.816;74.648;2023-04-10T02:07:11;13.73;;;4.43;;
76617;SDS011;65509;42.816;74.648;2023-04-10T02:09:46;20.98;;;8.20;;
76617;SDS011;65509;42.816;74.648;2023-04-10T02:12:15;21.08;;;5.95;;
76617;SDS011;65509;42.816;74.648;2023-04-10T02:14:41;13.65;;;4.88;;
76617;SDS011;65509;42.816;74.648;2023-04-10T02:17:08;23.17;;;5.78;;
76617;SDS011;65509;42.816;74.648;2023-04-10T02:19:35;16.42;;;5.35;;
76617;SDS011;65509;42.816;74.648;2023-04-10T02:22:02;25.02;;;5.45;;
76617;SDS011;65509;42.816;74.648;2023-04-10T02:24:28;21.85;;;6.65;;
76617;SDS011;65509;42.816;74.648;2023-04-10T02:26:54;24.25;;;5.55;;
76617;SDS011;65509;42.816;74.648;2023-04-10T02:29:20;17.27;;;4.82;;
76617;SDS011;65509;42.816;74.648;2023-04-10T02:31:46;21.45;;;5.47;;
76617;SDS011;65509;42.816;74.648;2023-04-10T02:34:11;12.82;;;4.30;;
76617;SDS011;65509;42.816;74.648;2023-04-10T02:36:37;17.40;;;5.18;;
76617;SDS011;65509;42.816;74.648;2023-04-10T02:39:03;13.68;;;4.97;;
76617;SDS011;65509;42.816;74.648;2023-04-10T02:41:29;22.92;;;7.85;;
76617;SDS011;65509;42.816;74.648;2023-04-10T02:43:54;22.25;;;7.85;;
76617;SDS011;65509;42.816;74.648;2023-04-10T02:46:20;22.75;;;7.78;;
76617;SDS011;65509;42.816;74.648;2023-04-10T02:48:45;33.13;;;8.45;;
76617;SDS011;65509;42.816;74.648;2023-04-10T02:51:11;65.30;;;13.30;;
76617;SDS011;65509;42.816;74.648;2023-04-10T02:53:37;46.08;;;10.38;;
76617;SDS011;65509;42.816;74.648;2023-04-10T02:56:02;34.50;;;7.40;;
76617;SDS011;65509;42.816;74.648;2023-04-10T02:58:30;37.70;;;7.72;;
76617;SDS011;65509;42.816;74.648;2023-04-10T03:00:56;23.95;;;5.65;;
76617;SDS011;65509;42.816;74.648;2023-04-10T03:03:22;27.20;;;10.00;;
76617;SDS011;65509;42.816;74.648;2023-04-10T03:05:47;21.35;;;6.40;;
76617;SDS011;65509;42.816;74.648;2023-04-10T03:08:14;17.70;;;4.22;;
76617;SDS011;65509;42.816;74.648;2023-04-10T03:10:39;18.85;;;4.65;;
76617;SDS011;65509;42.816;74.648;2023-04-10T03:13:07;19.27;;;4.43;;
76617;SDS011;65509;42.816;74.648;2023-04-10T03:15:32;16.13;;;3.97;;
76617;SDS011;65509;42.816;74.648;2023-04-10T03:17:58;14.10;;;3.75;;
76617;SDS011;65509;42.816;74.648;2023-04-10T03:20:23;15.65;;;4.80;;
76617;SDS011;65509;42.816;74.648;2023-04-10T03:22:49;19.08;;;5.63;;
76617;SDS011;65509;42.816;74.648;2023-04-10T03:25:15;20.55;;;4.93;;
76617;SDS011;65509;42.816;74.648;2023-04-10T03:27:40;16.48;;;4.60;;
76617;SDS011;65509;42.816;74.648;2023-04-10T03:30:06;13.57;;;4.47;;
76617;SDS011;65509;42.816;74.648;2023-04-10T03:32:32;15.27;;;4.80;;
76617;SDS011;65509;42.816;74.648;2023-04-10T03:34:57;20.05;;;5.00;;
76617;SDS011;65509;42.816;74.648;2023-04-10T03:37:23;24.73;;;5.15;;
76617;SDS011;65509;42.816;74.648;2023-04-10T03:39:49;20.13;;;5.50;;
76617;SDS011;65509;42.816;74.648;2023-04-10T03:42:15;19.83;;;5.07;;
76617;SDS011;65509;42.816;74.648;2023-04-10T03:44:40;24.42;;;5.45;;
76617;SDS011;65509;42.816;74.648;2023-04-10T03:47:05;19.58;;;5.82;;
76617;SDS011;65509;42.816;74.648;2023-04-10T03:49:31;21.58;;;5.65;;
76617;SDS011;65509;42.816;74.648;2023-04-10T03:51:56;22.35;;;5.43;;
76617;SDS011;65509;42.816;74.648;2023-04-10T03:54:25;18.67;;;5.47;;
76617;SDS011;65509;42.816;74.648;2023-04-10T03:56:50;30.15;;;8.43;;
76617;SDS011;65509;42.816;74.648;2023-04-10T03:59:16;20.33;;;6.90;;
76617;SDS011;65509;42.816;74.648;2023-04-10T04:01:41;31.02;;;7.88;;
76617;SDS011;65509;42.816;74.648;2023-04-10T04:04:09;19.63;;;6.50;;
76617;SDS011;65509;42.816;74.648;2023-04-10T04:06:35;17.65;;;5.97;;
76617;SDS011;65509;42.816;74.648;2023-04-10T04:09:00;25.13;;;7.78;;
76617;SDS011;65509;42.816;74.648;2023-04-10T04:11:26;17.25;;;5.05;;
76617;SDS011;65509;42.816;74.648;2023-04-10T04:13:51;27.80;;;5.57;;
76617;SDS011;65509;42.816;74.648;2023-04-10T04:16:17;30.58;;;7.15;;
76617;SDS011;65509;42.816;74.648;2023-04-10T04:18:42;32.90;;;5.78;;
76617;SDS011;65509;42.816;74.648;2023-04-10T04:21:08;29.58;;;7.25;;
76617;SDS011;65509;42.816;74.648;2023-04-10T04:23:33;15.98;;;4.50;;
76617;SDS011;65509;42.816;74.648;2023-04-10T04:25:59;24.95;;;5.80;;
76617;SDS011;65509;42.816;74.648;2023-04-10T04:28:24;22.85;;;5.75;;
76617;SDS011;65509;42.816;74.648;2023-04-10T04:30:50;24.75;;;6.10;;
76617;SDS011;65509;42.816;74.648;2023-04-10T04:33:15;23.73;;;6.25;;
76617;SDS011;65509;42.816;74.648;2023-04-10T04:35:41;29.70;;;5.70;;
76617;SDS011;65509;42.816;74.648;2023-04-10T04:38:06;29.95;;;5.50;;
76617;SDS011;65509;42.816;74.648;2023-04-10T04:40:32;22.58;;;5.82;;
76617;SDS011;65509;42.816;74.648;2023-04-10T04:42:57;29.13;;;6.75;;
76617;SDS011;65509;42.816;74.648;2023-04-10T04:45:22;28.45;;;6.57;;
76617;SDS011;65509;42.816;74.648;2023-04-10T04:47:49;26.10;;;6.65;;
76617;SDS011;65509;42.816;74.648;2023-04-10T04:50:14;24.90;;;6.60;;
76617;SDS011;65509;42.816;74.648;2023-04-10T04:52:39;30.23;;;8.00;;
76617;SDS011;65509;42.816;74.648;2023-04-10T04:55:05;29.05;;;7.40;;
76617;SDS011;65509;42.816;74.648;2023-04-10T04:57:31;31.30;;;7.63;;
76617;SDS011;65509;42.816;74.648;2023-04-10T04:59:56;34.13;;;9.55;;
76617;SDS011;65509;42.816;74.648;2023-04-10T05:02:22;25.00;;;7.65;;
76617;SDS011;65509;42.816;74.648;2023-04-10T05:04:47;37.25;;;8.55;;
76617;SDS011;65509;42.816;74.648;2023-04-10T05:07:13;32.45;;;8.68;;
76617;SDS011;65509;42.816;74.648;2023-04-10T05:09:38;31.10;;;8.15;;
76617;SDS011;65509;42.816;74.648;2023-04-10T05:12:04;39.20;;;9.52;;
76617;SDS011;65509;42.816;74.648;2023-04-10T05:14:30;28.05;;;8.70;;
76617;SDS011;65509;42.816;74.648;2023-04-10T05:16:55;40.45;;;9.32;;
76617;SDS011;65509;42.816;74.648;2023-04-10T05:19:21;33.35;;;8.68;;
76617;SDS011;65509;42.816;74.648;2023-04-10T05:21:46;42.78;;;8.63;;
76617;SDS011;65509;42.816;74.648;2023-04-10T05:24:12;31.65;;;8.18;;
76617;SDS011;65509;42.816;74.648;2023-04-10T05:26:37;26.80;;;6.93;;
76617;SDS011;65509;42.816;74.648;2023-04-10T05:29:03;30.17;;;8.15;;
76617;SDS011;65509;42.816;74.648;2023-04-10T05:31:28;21.50;;;7.20;;
76617;SDS011;65509;42.816;74.648;2023-04-10T05:33:54;37.22;;;8.05;;
76617;SDS011;65509;42.816;74.648;2023-04-10T05:36:20;26.10;;;7.38;;
76617;SDS011;65509;42.816;74.648;2023-04-10T05:38:45;27.90;;;5.97;;
76617;SDS011;65509;42.816;74.648;2023-04-10T05:41:10;30.92;;;7.47;;
76617;SDS011;65509;42.816;74.648;2023-04-10T05:43:36;22.48;;;7.07;;
76617;SDS011;65509;42.816;74.648;2023-04-10T05:46:01;32.72;;;7.85;;
76617;SDS011;65509;42.816;74.648;2023-04-10T05:48:27;27.88;;;7.55;;
76617;SDS011;65509;42.816;74.648;2023-04-10T05:50:53;26.83;;;7.00;;
76617;SDS011;65509;42.816;74.648;2023-04-10T05:53:18;30.30;;;8.18;;
76617;SDS011;65509;42.816;74.648;2023-04-10T05:55:44;28.05;;;9.25;;
76617;SDS011;65509;42.816;74.648;2023-04-10T05:58:09;30.52;;;9.05;;
76617;SDS011;65509;42.816;74.648;2023-04-10T06:00:35;37.85;;;9.25;;
76617;SDS011;65509;42.816;74.648;2023-04-10T06:03:01;30.77;;;10.68;;
76617;SDS011;65509;42.816;74.648;2023-04-10T06:05:30;38.05;;;11.85;;
76617;SDS011;65509;42.816;74.648;2023-04-10T06:07:55;26.08;;;7.03;;
76617;SDS011;65509;42.816;74.648;2023-04-10T06:10:20;27.02;;;7.97;;
76617;SDS011;65509;42.816;74.648;2023-04-10T06:12:46;33.55;;;8.38;;
76617;SDS011;65509;42.816;74.648;2023-04-10T06:15:11;27.95;;;6.97;;
76617;SDS011;65509;42.816;74.648;2023-04-10T06:17:40;27.17;;;6.35;;
76617;SDS011;65509;42.816;74.648;2023-04-10T06:20:06;29.17;;;6.15;;
76617;SDS011;65509;42.816;74.648;2023-04-10T06:22:31;23.80;;;4.88;;
76617;SDS011;65509;42.816;74.648;2023-04-10T06:24:57;25.10;;;6.60;;
76617;SDS011;65509;42.816;74.648;2023-04-10T06:27:23;25.35;;;5.80;;
76617;SDS011;65509;42.816;74.648;2023-04-10T06:29:48;25.25;;;7.28;;
76617;SDS011;65509;42.816;74.648;2023-04-10T06:32:14;28.13;;;6.82;;
76617;SDS011;65509;42.816;74.648;2023-04-10T06:34:39;36.95;;;11.00;;
76617;SDS011;65509;42.816;74.648;2023-04-10T06:37:05;41.97;;;10.98;;
76617;SDS011;65509;42.816;74.648;2023-04-10T06:39:30;37.50;;;12.55;;
76617;SDS011;65509;42.816;74.648;2023-04-10T06:41:55;34.20;;;8.27;;
76617;SDS011;65509;42.816;74.648;2023-04-10T06:44:21;26.77;;;6.63;;
76617;SDS011;65509;42.816;74.648;2023-04-10T06:46:47;23.25;;;5.65;;
76617;SDS011;65509;42.816;74.648;2023-04-10T06:49:12;24.50;;;6.47;;
76617;SDS011;65509;42.816;74.648;2023-04-10T06:51:38;30.52;;;5.40;;
76617;SDS011;65509;42.816;74.648;2023-04-10T06:54:03;25.45;;;5.28;;
76617;SDS011;65509;42.816;74.648;2023-04-10T06:56:29;20.67;;;4.90;;
76617;SDS011;65509;42.816;74.648;2023-04-10T06:58:54;33.60;;;5.65;;
76617;SDS011;65509;42.816;74.648;2023-04-10T07:01:21;26.00;;;7.07;;
76617;SDS011;65509;42.816;74.648;2023-04-10T07:03:47;27.33;;;6.68;;
76617;SDS011;65509;42.816;74.648;2023-04-10T07:06:12;25.52;;;6.22;;
76617;SDS011;65509;42.816;74.648;2023-04-10T07:08:38;30.75;;;6.30;;
76617;SDS011;65509;42.816;74.648;2023-04-10T07:11:03;29.98;;;6.63;;
76617;SDS011;65509;42.816;74.648;2023-04-10T07:13:28;20.52;;;4.70;;
76617;SDS011;65509;42.816;74.648;2023-04-10T07:15:54;23.30;;;5.13;;
76617;SDS011;65509;42.816;74.648;2023-04-10T07:18:20;22.20;;;4.70;;
76617;SDS011;65509;42.816;74.648;2023-04-10T07:20:45;28.33;;;5.68;;
76617;SDS011;65509;42.816;74.648;2023-04-10T07:23:11;30.35;;;5.63;;
76617;SDS011;65509;42.816;74.648;2023-04-10T07:25:36;31.85;;;4.85;;
76617;SDS011;65509;42.816;74.648;2023-04-10T07:28:02;22.88;;;5.18;;
76617;SDS011;65509;42.816;74.648;2023-04-10T07:30:27;22.67;;;5.68;;
76617;SDS011;65509;42.816;74.648;2023-04-10T07:32:53;27.48;;;5.57;;
76617;SDS011;65509;42.816;74.648;2023-04-10T07:35:18;24.10;;;5.93;;
76617;SDS011;65509;42.816;74.648;2023-04-10T07:37:44;14.85;;;3.83;;
76617;SDS011;65509;42.816;74.648;2023-04-10T07:40:17;31.17;;;6.18;;
76617;SDS011;65509;42.816;74.648;2023-04-10T07:42:44;28.60;;;5.28;;
76617;SDS011;65509;42.816;74.648;2023-04-10T07:45:10;27.15;;;5.65;;
76617;SDS011;65509;42.816;74.648;2023-04-10T07:47:36;28.02;;;5.43;;
76617;SDS011;65509;42.816;74.648;2023-04-10T07:50:02;23.52;;;5.28;;
76617;SDS011;65509;42.816;74.648;2023-04-10T07:52:27;27.50;;;6.32;;
76617;SDS011;65509;42.816;74.648;2023-04-10T07:54:53;26.88;;;4.95;;
76617;SDS011;65509;42.816;74.648;2023-04-10T07:57:18;18.63;;;4.78;;
76617;SDS011;65509;42.816;74.648;2023-04-10T07:59:43;27.77;;;5.40;;
76617;SDS011;65509;42.816;74.648;2023-04-10T08:02:09;26.88;;;6.47;;
76617;SDS011;65509;42.816;74.648;2023-04-10T08:04:35;17.67;;;4.82;;
76617;SDS011;65509;42.816;74.648;2023-04-10T08:07:00;21.48;;;5.70;;
76617;SDS011;65509;42.816;74.648;2023-04-10T08:09:26;20.85;;;6.35;;
76617;SDS011;65509;42.816;74.648;2023-04-10T08:11:51;23.35;;;5.72;;
76617;SDS011;65509;42.816;74.648;2023-04-10T08:14:17;27.77;;;7.80;;
76617;SDS011;65509;42.816;74.648;2023-04-10T08:16:42;21.52;;;6.47;;
76617;SDS011;65509;42.816;74.648;2023-04-10T08:19:08;29.77;;;6.00;;
76617;SDS011;65509;42.816;74.648;2023-04-10T08:21:33;21.27;;;5.28;;
76617;SDS011;65509;42.816;74.648;2023-04-10T08:24:00;22.30;;;4.95;;
76617;SDS011;65509;42.816;74.648;2023-04-10T08:26:27;28.88;;;5.93;;
76617;SDS011;65509;42.816;74.648;2023-04-10T08:28:54;21.90;;;6.00;;
76617;SDS011;65509;42.816;74.648;2023-04-10T08:31:21;23.77;;;5.00;;
76617;SDS011;65509;42.816;74.648;2023-04-10T08:33:46;17.67;;;4.70;;
76617;SDS011;65509;42.816;74.648;2023-04-10T08:36:12;24.23;;;6.60;;
76617;SDS011;65509;42.816;74.648;2023-04-10T08:38:40;21.02;;;4.40;;
76617;SDS011;65509;42.816;74.648;2023-04-10T08:41:05;26.38;;;6.20;;
76617;SDS011;65509;42.816;74.648;2023-04-10T08:43:31;29.45;;;5.35;;
76617;SDS011;65509;42.816;74.648;2023-04-10T08:45:58;23.80;;;6.20;;
76617;SDS011;65509;42.816;74.648;2023-04-10T08:48:26;19.38;;;5.65;;
76617;SDS011;65509;42.816;74.648;2023-04-10T08:50:55;30.27;;;5.22;;
76617;SDS011;65509;42.816;74.648;2023-04-10T08:53:24;24.17;;;5.47;;
76617;SDS011;65509;42.816;74.648;2023-04-10T08:55:51;20.23;;;5.65;;
76617;SDS011;65509;42.816;74.648;2023-04-10T08:58:17;29.85;;;6.50;;
76617;SDS011;65509;42.816;74.648;2023-04-10T09:00:42;29.23;;;7.32;;
76617;SDS011;65509;42.816;74.648;2023-04-10T09:03:08;31.27;;;6.07;;
76617;SDS011;65509;42.816;74.648;2023-04-10T09:05:35;20.48;;;6.15;;
76617;SDS011;65509;42.816;74.648;2023-04-10T09:08:01;24.25;;;7.95;;
76617;SDS011;65509;42.816;74.648;2023-04-10T09:10:27;23.85;;;8.27;;
76617;SDS011;65509;42.816;74.648;2023-04-10T09:12:52;28.50;;;6.72;;
76617;SDS011;65509;42.816;74.648;2023-04-10T09:15:18;36.80;;;7.15;;
76617;SDS011;65509;42.816;74.648;2023-04-10T09:17:56;26.88;;;8.35;;
76617;SDS011;65509;42.816;74.648;2023-04-10T09:20:22;36.38;;;9.60;;
76617;SDS011;65509;42.816;74.648;2023-04-10T09:22:48;23.00;;;7.90;;
76617;SDS011;65509;42.816;74.648;2023-04-10T09:25:30;31.67;;;8.55;;
76617;SDS011;65509;42.816;74.648;2023-04-10T09:28:02;24.98;;;8.50;;
76617;SDS011;65509;42.816;74.648;2023-04-10T09:30:31;30.42;;;8.77;;
76617;SDS011;65509;42.816;74.648;2023-04-10T09:32:57;29.23;;;8.25;;
76617;SDS011;65509;42.816;74.648;2023-04-10T09:35:25;36.67;;;9.63;;
76617;SDS011;65509;42.816;74.648;2023-04-10T09:37:59;29.83;;;8.73;;
76617;SDS011;65509;42.816;74.648;2023-04-10T09:40:24;28.73;;;8.95;;
76617;SDS011;65509;42.816;74.648;2023-04-10T09:42:52;30.58;;;10.18;;
76617;SDS011;65509;42.816;74.648;2023-04-10T09:45:17;44.42;;;12.90;;
76617;SDS011;65509;42.816;74.648;2023-04-10T09:48:00;26.50;;;8.23;;
76617;SDS011;65509;42.816;74.648;2023-04-10T09:50:33;42.45;;;9.40;;
76617;SDS011;65509;42.816;74.648;2023-04-10T09:52:59;27.42;;;8.43;;
76617;SDS011;65509;42.816;74.648;2023-04-10T09:55:24;51.08;;;14.15;;
76617;SDS011;65509;42.816;74.648;2023-04-10T09:57:50;32.20;;;11.32;;
76617;SDS011;65509;42.816;74.648;2023-04-10T10:00:15;42.67;;;14.05;;
76617;SDS011;65509;42.816;74.648;2023-04-10T10:02:41;28.95;;;7.97;;
76617;SDS011;65509;42.816;74.648;2023-04-10T10:05:06;47.03;;;17.17;;
76617;SDS011;65509;42.816;74.648;2023-04-10T10:07:32;31.73;;;10.88;;
76617;SDS011;65509;42.816;74.648;2023-04-10T10:09:58;35.45;;;14.68;;
76617;SDS011;65509;42.816;74.648;2023-04-10T10:14:59;34.83;;;11.00;;
76617;SDS011;65509;42.816;74.648;2023-04-10T10:17:27;36.92;;;13.90;;
76617;SDS011;65509;42.816;74.648;2023-04-10T10:20:03;34.35;;;11.82;;
76617;SDS011;65509;42.816;74.648;2023-04-10T10:22:29;23.17;;;8.00;;
76617;SDS011;65509;42.816;74.648;2023-04-10T10:24:56;34.40;;;10.10;;
76617;SDS011;65509;42.816;74.648;2023-04-10T10:27:24;33.95;;;13.30;;
76617;SDS011;65509;42.816;74.648;2023-04-10T10:29:51;45.88;;;18.48;;
76617;SDS011;65509;42.816;74.648;2023-04-10T10:32:17;71.93;;;23.33;;
76617;SDS011;65509;42.816;74.648;2023-04-10T10:34:43;54.83;;;20.27;;
76617;SDS011;65509;42.816;74.648;2023-04-10T10:37:10;38.70;;;14.75;;
76617;SDS011;65509;42.816;74.648;2023-04-10T10:39:45;37.33;;;12.80;;
76617;SDS011;65509;42.816;74.648;2023-04-10T10:47:07;42.60;;;18.58;;
76617;SDS011;65509;42.816;74.648;2023-04-10T10:58:00;30.85;;;10.95;;
76617;SDS011;65509;42.816;74.648;2023-04-10T11:01:03;42.05;;;10.75;;
76617;SDS011;65509;42.816;74.648;2023-04-10T11:05:49;40.72;;;10.57;;
76617;SDS011;65509;42.816;74.648;2023-04-10T11:08:16;38.35;;;9.98;;
76617;SDS011;65509;42.816;74.648;2023-04-10T11:13:29;36.80;;;12.27;;
76617;SDS011;65509;42.816;74.648;2023-04-10T11:15:58;49.30;;;17.23;;
76617;SDS011;65509;42.816;74.648;2023-04-10T11:21:08;29.58;;;10.43;;
76617;SDS011;65509;42.816;74.648;2023-04-10T11:23:34;23.08;;;8.75;;
76617;SDS011;65509;42.816;74.648;2023-04-10T11:26:00;29.08;;;8.70;;
76617;SDS011;65509;42.816;74.648;2023-04-10T11:28:32;28.83;;;8.30;;
76617;SDS011;65509;42.816;74.648;2023-04-10T11:31:14;18.35;;;7.10;;
76617;SDS011;65509;42.816;74.648;2023-04-10T11:33:40;23.67;;;7.88;;
76617;SDS011;65509;42.816;74.648;2023-04-10T11:36:06;24.65;;;9.32;;
76617;SDS011;65509;42.816;74.648;2023-04-10T11:38:32;45.20;;;17.73;;
76617;SDS011;65509;42.816;74.648;2023-04-10T11:41:01;36.90;;;16.90;;
76617;SDS011;65509;42.816;74.648;2023-04-10T11:43:28;42.00;;;14.85;;
76617;SDS011;65509;42.816;74.648;2023-04-10T11:46:00;28.77;;;12.88;;
76617;SDS011;65509;42.816;74.648;2023-04-10T11:48:26;38.40;;;13.63;;
76617;SDS011;65509;42.816;74.648;2023-04-10T11:50:53;31.58;;;13.10;;
76617;SDS011;65509;42.816;74.648;2023-04-10T11:53:19;35.60;;;14.45;;
76617;SDS011;65509;42.816;74.648;2023-04-10T11:55:45;24.88;;;10.98;;
76617;SDS011;65509;42.816;74.648;2023-04-10T11:58:23;27.92;;;11.13;;
76617;SDS011;65509;42.816;74.648;2023-04-10T12:00:58;24.98;;;10.05;;
76617;SDS011;65509;42.816;74.648;2023-04-10T12:03:37;29.90;;;9.82;;
76617;SDS011;65509;42.816;74.648;2023-04-10T12:06:05;28.65;;;9.60;;
76617;SDS011;65509;42.816;74.648;2023-04-10T12:08:35;28.90;;;8.98;;
76617;SDS011;65509;42.816;74.648;2023-04-10T12:11:01;24.33;;;7.60;;
76617;SDS011;65509;42.816;74.648;2023-04-10T12:13:27;31.20;;;8.90;;
76617;SDS011;65509;42.816;74.648;2023-04-10T12:15:53;32.17;;;9.30;;
76617;SDS011;65509;42.816;74.648;2023-04-10T12:18:20;31.00;;;8.15;;
76617;SDS011;65509;42.816;74.648;2023-04-10T12:20:45;31.45;;;9.68;;
76617;SDS011;65509;42.816;74.648;2023-04-10T12:23:11;21.08;;;7.70;;
76617;SDS011;65509;42.816;74.648;2023-04-10T12:25:37;23.90;;;8.77;;
76617;SDS011;65509;42.816;74.648;2023-04-10T12:28:03;27.25;;;8.25;;
76617;SDS011;65509;42.816;74.648;2023-04-10T12:30:28;24.58;;;7.82;;
76617;SDS011;65509;42.816;74.648;2023-04-10T12:32:54;22.17;;;7.72;;
76617;SDS011;65509;42.816;74.648;2023-04-10T12:35:36;28.80;;;8.25;;
76617;SDS011;65509;42.816;74.648;2023-04-10T12:38:04;25.20;;;8.07;;
76617;SDS011;65509;42.816;74.648;2023-04-10T12:40:30;30.67;;;8.05;;
76617;SDS011;65509;42.816;74.648;2023-04-10T12:42:55;20.30;;;6.85;;
76617;SDS011;65509;42.816;74.648;2023-04-10T12:45:21;29.42;;;8.05;;
76617;SDS011;65509;42.816;74.648;2023-04-10T12:48:05;18.60;;;7.03;;
76617;SDS011;65509;42.816;74.648;2023-04-10T12:50:30;32.47;;;7.55;;
76617;SDS011;65509;42.816;74.648;2023-04-10T12:53:05;21.25;;;7.75;;
76617;SDS011;65509;42.816;74.648;2023-04-10T12:55:35;22.88;;;8.52;;
76617;SDS011;65509;42.816;74.648;2023-04-10T12:58:14;21.35;;;7.38;;
76617;SDS011;65509;42.816;74.648;2023-04-10T13:00:41;23.15;;;7.53;;
76617;SDS011;65509;42.816;74.648;2023-04-10T13:03:06;23.15;;;7.18;;
76617;SDS011;65509;42.816;74.648;2023-04-10T13:05:32;26.73;;;7.63;;
76617;SDS011;65509;42.816;74.648;2023-04-10T13:07:57;25.23;;;8.05;;
76617;SDS011;65509;42.816;74.648;2023-04-10T13:10:23;29.08;;;8.25;;
76617;SDS011;65509;42.816;74.648;2023-04-10T13:12:48;28.65;;;10.23;;
76617;SDS011;65509;42.816;74.648;2023-04-10T13:15:14;28.00;;;10.88;;
76617;SDS011;65509;42.816;74.648;2023-04-10T13:17:41;23.05;;;7.57;;
76617;SDS011;65509;42.816;74.648;2023-04-10T13:20:07;21.17;;;6.25;;
76617;SDS011;65509;42.816;74.648;2023-04-10T13:22:33;22.50;;;5.65;;
76617;SDS011;65509;42.816;74.648;2023-04-10T13:24:58;18.40;;;5.60;;
76617;SDS011;65509;42.816;74.648;2023-04-10T13:27:24;21.75;;;5.32;;
76617;SDS011;65509;42.816;74.648;2023-04-10T13:29:49;17.92;;;4.60;;
76617;SDS011;65509;42.816;74.648;2023-04-10T13:32:18;14.25;;;5.07;;
76617;SDS011;65509;42.816;74.648;2023-04-10T13:34:43;22.48;;;6.47;;
76617;SDS011;65509;42.816;74.648;2023-04-10T13:37:09;13.02;;;4.97;;
76617;SDS011;65509;42.816;74.648;2023-04-10T13:39:37;16.45;;;4.38;;
76617;SDS011;65509;42.816;74.648;2023-04-10T13:42:02;16.98;;;3.60;;
76617;SDS011;65509;42.816;74.648;2023-04-10T13:44:28;23.52;;;4.50;;
76617;SDS011;65509;42.816;74.648;2023-04-10T13:46:53;21.40;;;4.15;;
76617;SDS011;65509;42.816;74.648;2023-04-10T13:49:19;24.73;;;4.88;;
76617;SDS011;65509;42.816;74.648;2023-04-10T13:51:46;15.32;;;4.10;;
76617;SDS011;65509;42.816;74.648;2023-04-10T13:54:11;16.63;;;3.90;;
76617;SDS011;65509;42.816;74.648;2023-04-10T13:56:37;18.15;;;3.90;;
76617;SDS011;65509;42.816;74.648;2023-04-10T13:59:03;23.50;;;4.53;;
76617;SDS011;65509;42.816;74.648;2023-04-10T14:01:28;27.55;;;5.07;;
76617;SDS011;65509;42.816;74.648;2023-04-10T14:03:54;28.27;;;5.38;;
76617;SDS011;65509;42.816;74.648;2023-04-10T14:06:20;17.73;;;4.60;;
76617;SDS011;65509;42.816;74.648;2023-04-10T14:08:45;27.95;;;6.22;;
76617;SDS011;65509;42.816;74.648;2023-04-10T14:11:11;19.40;;;5.25;;
76617;SDS011;65509;42.816;74.648;2023-04-10T14:13:39;19.45;;;5.25;;
76617;SDS011;65509;42.816;74.648;2023-04-10T14:16:05;26.50;;;6.25;;
76617;SDS011;65509;42.816;74.648;2023-04-10T14:18:30;18.13;;;5.47;;
76617;SDS011;65509;42.816;74.648;2023-04-10T14:20:56;27.60;;;5.97;;
76617;SDS011;65509;42.816;74.648;2023-04-10T14:23:21;27.85;;;6.45;;
76617;SDS011;65509;42.816;74.648;2023-04-10T14:25:48;17.27;;;6.00;;
76617;SDS011;65509;42.816;74.648;2023-04-10T14:28:13;23.52;;;7.20;;
76617;SDS011;65509;42.816;74.648;2023-04-10T14:30:49;23.60;;;6.68;;
76617;SDS011;65509;42.816;74.648;2023-04-10T14:33:16;24.33;;;7.28;;
76617;SDS011;65509;42.816;74.648;2023-04-10T14:35:42;28.15;;;9.80;;
76617;SDS011;65509;42.816;74.648;2023-04-10T14:38:07;28.40;;;6.95;;
76617;SDS011;65509;42.816;74.648;2023-04-10T14:40:33;20.85;;;6.93;;
76617;SDS011;65509;42.816;74.648;2023-04-10T14:43:01;30.17;;;7.40;;
76617;SDS011;65509;42.816;74.648;2023-04-10T14:45:27;28.20;;;7.80;;
76617;SDS011;65509;42.816;74.648;2023-04-10T14:47:52;23.63;;;7.82;;
76617;SDS011;65509;42.816;74.648;2023-04-10T14:50:18;25.67;;;9.00;;
76617;SDS011;65509;42.816;74.648;2023-04-10T14:52:43;30.42;;;11.68;;